Time;durP1;ratioP1;P1;durP2;ratioP2;P2;SDS_P1;SDS_P2;PMS_P1;PMS_P2;Temp;Humidity;BMP_temperature;BMP_pressure;BME280_temperature;BME280_humidity;BME280_pressure;Samples;Min_cycle;Max_cycle;Signal;HPM_P1;HPM_P2
2022/10/31 00:01:36;;;;;;;6.47;3.60;;;9.70;99.90;10.90;97374.00;;;;5135930;27;20306;-66
2022/10/31 00:04:24;;;;;;;6.50;4.00;;;9.80;99.90;11.10;97374.00;;;;5137590;27;20197;-65
2022/10/31 00:07:14;;;;;;;12.47;4.10;;;9.80;99.90;11.10;97370.00;;;;5130212;27;20201;-71
2022/10/31 00:10:04;;;;;;;17.17;3.60;;;9.90;99.90;11.10;97361.00;;;;5136183;27;20281;-65
2022/10/31 00:12:53;;;;;;;12.10;3.30;;;10.00;99.90;11.00;97371.00;;;;5138451;27;20253;-64
2022/10/31 00:15:42;;;;;;;8.80;3.40;;;10.00;99.90;10.90;97366.00;;;;5129929;27;20194;-72
2022/10/31 00:18:31;;;;;;;9.93;3.47;;;10.00;99.90;11.20;97374.00;;;;5129571;27;20270;-66
2022/10/31 00:21:20;;;;;;;6.27;3.27;;;10.10;99.90;10.50;97368.00;;;;5138530;27;20225;-66
2022/10/31 00:24:12;;;;;;;9.90;3.40;;;10.00;99.90;10.20;97360.00;;;;5141000;27;20194;-67
2022/10/31 00:27:00;;;;;;;6.73;4.73;;;9.80;99.90;10.30;97370.00;;;;5134717;27;20221;-65
2022/10/31 00:29:49;;;;;;;10.47;5.03;;;9.70;99.90;10.70;97379.00;;;;5132646;27;20254;-65
2022/10/31 00:32:38;;;;;;;13.10;6.87;;;9.70;99.90;10.80;97376.00;;;;5130685;27;20225;-65
2022/10/31 00:35:27;;;;;;;14.07;4.63;;;9.70;99.90;11.20;97364.00;;;;5143752;27;20205;-65
2022/10/31 00:38:15;;;;;;;12.63;6.00;;;9.80;99.90;11.10;97362.00;;;;5143874;27;20252;-66
2022/10/31 00:41:05;;;;;;;13.30;6.30;;;9.90;99.90;11.10;97362.00;;;;5145053;27;20269;-65
2022/10/31 00:43:54;;;;;;;9.83;3.90;;;9.90;99.90;10.80;97369.00;;;;5130805;27;20198;-66
2022/10/31 00:46:43;;;;;;;11.73;6.07;;;9.90;99.90;11.00;97367.00;;;;5129802;27;20251;-66
2022/10/31 00:49:31;;;;;;;13.83;5.00;;;9.90;99.90;11.10;97368.00;;;;5131492;27;20311;-66
2022/10/31 00:52:20;;;;;;;11.80;4.53;;;9.90;99.90;10.90;97367.00;;;;5147053;27;20707;-66
2022/10/31 00:55:09;;;;;;;7.03;3.13;;;9.90;99.90;10.60;97359.00;;;;5148122;27;20208;-66
2022/10/31 00:57:59;;;;;;;7.93;3.40;;;9.80;99.90;10.30;97365.00;;;;5150082;27;20245;-66
2022/10/31 01:00:54;;;;;;;6.23;5.27;;;9.60;99.90;10.20;97354.00;;;;5143725;27;20217;-65
2022/10/31 01:03:43;;;;;;;7.63;4.03;;;9.50;99.90;10.20;97357.00;;;;5141941;27;20242;-69
2022/10/31 01:06:32;;;;;;;9.90;3.27;;;9.40;99.90;10.40;97357.00;;;;5138960;27;20210;-66
2022/10/31 01:09:20;;;;;;;8.33;3.27;;;9.40;99.90;10.30;97350.00;;;;5138344;27;20197;-65
2022/10/31 01:12:09;;;;;;;7.90;3.30;;;9.40;99.90;10.00;97347.00;;;;5134053;27;20218;-65
2022/10/31 01:14:59;;;;;;;13.10;3.27;;;9.30;99.90;9.80;97340.00;;;;5129932;27;20190;-64
2022/10/31 01:17:49;;;;;;;7.40;3.57;;;9.30;99.90;10.10;97344.00;;;;5137354;27;20285;-65
2022/10/31 01:20:37;;;;;;;9.53;3.33;;;9.30;99.90;10.10;97338.00;;;;5150041;27;20238;-64
2022/10/31 01:23:26;;;;;;;12.27;4.00;;;9.30;99.90;10.40;97335.00;;;;5149444;27;20229;-66
2022/10/31 01:26:18;;;;;;;12.40;4.03;;;9.30;99.90;10.40;97334.00;;;;5137160;27;20692;-65
2022/10/31 01:29:09;;;;;;;4.70;3.50;;;9.40;99.90;9.80;97332.00;;;;5139008;27;20263;-71
2022/10/31 01:31:59;;;;;;;12.17;3.20;;;9.30;99.90;9.90;97334.00;;;;5129789;27;20253;-63
2022/10/31 01:34:48;;;;;;;11.17;3.60;;;9.20;99.90;10.10;97335.00;;;;5130119;27;20190;-64
2022/10/31 01:37:37;;;;;;;5.77;3.67;;;9.20;99.90;9.90;97326.00;;;;5146667;27;20204;-69
2022/10/31 01:40:30;;;;;;;3.37;2.53;;;9.20;99.90;10.30;97326.00;;;;5143009;27;20328;-63
2022/10/31 01:43:19;;;;;;;9.60;3.70;;;9.20;99.90;9.90;97320.00;;;;5128897;27;20210;-73
2022/10/31 01:46:14;;;;;;;12.73;5.43;;;9.20;99.90;9.90;97332.00;;;;5129670;27;20269;-63
2022/10/31 01:49:07;;;;;;;6.53;3.07;;;9.10;99.90;9.70;97324.00;;;;5128684;27;20255;-64
2022/10/31 01:52:02;;;;;;;13.87;3.37;;;9.00;99.90;9.50;97328.00;;;;5103040;28;20740;-63
2022/10/31 01:54:57;;;;;;;8.83;3.07;;;9.00;99.90;9.70;97319.00;;;;5107051;28;20202;-68
2022/10/31 01:57:50;;;;;;;6.20;3.10;;;8.90;99.90;9.40;97328.00;;;;5103886;28;20739;-63
2022/10/31 02:00:39;;;;;;;10.87;3.83;;;8.90;99.90;9.90;97322.00;;;;5108114;28;20222;-65
2022/10/31 02:03:29;;;;;;;8.87;4.33;;;8.90;99.90;9.80;97318.00;;;;5107770;28;20287;-71
2022/10/31 02:06:34;;;;;;;8.60;4.17;;;9.00;99.90;10.00;97312.00;;;;5094800;28;20210;-63
2022/10/31 02:09:24;;;;;;;15.23;4.07;;;9.10;99.90;10.30;97300.00;;;;5105462;28;20202;-64
2022/10/31 02:12:14;;;;;;;8.50;3.20;;;9.20;99.90;10.50;97303.00;;;;5098988;28;20617;-62
2022/10/31 02:15:05;;;;;;;8.03;3.70;;;9.30;99.90;9.90;97307.00;;;;5097667;28;20713;-67
2022/10/31 02:17:54;;;;;;;9.70;3.60;;;9.20;99.90;9.40;97290.00;;;;5095965;28;20203;-65
2022/10/31 02:20:53;;;;;;;9.97;4.00;;;9.00;99.90;9.30;97298.00;;;;5107648;28;20214;-64
2022/10/31 02:24:35;;;;;;;10.50;4.23;;;8.90;99.90;9.80;97295.00;;;;5107757;28;20206;-68
2022/10/31 02:27:56;;;;;;;4.50;3.00;;;8.80;99.90;10.00;97303.00;;;;5107295;28;20207;-64
2022/10/31 02:31:15;;;;;;;8.97;4.00;;;8.90;99.90;9.60;97289.00;;;;5094679;28;20246;-63
2022/10/31 02:34:14;;;;;;;3.70;2.80;;;8.80;99.90;9.50;97294.00;;;;5097184;28;20196;-65
2022/10/31 02:37:13;;;;;;;5.37;3.50;;;8.80;99.90;9.40;97299.00;;;;5106841;28;20199;-63
2022/10/31 02:40:11;;;;;;;5.30;2.83;;;8.70;99.90;9.50;97289.00;;;;5106528;28;20283;-63
2022/10/31 02:43:07;;;;;;;8.27;4.27;;;8.70;99.90;9.60;97298.00;;;;5107038;28;20203;-65
2022/10/31 02:46:05;;;;;;;6.60;3.47;;;8.80;99.90;9.70;97290.00;;;;5108014;28;20758;-64
2022/10/31 02:49:01;;;;;;;6.97;3.47;;;8.80;99.90;9.70;97297.00;;;;5106295;28;20195;-65
2022/10/31 02:51:50;;;;;;;6.63;3.10;;;8.80;99.90;9.70;97293.00;;;;5112179;28;20271;-63
2022/10/31 02:54:38;;;;;;;12.03;4.50;;;8.80;99.90;9.80;97301.00;;;;5109911;28;20205;-64
2022/10/31 02:57:32;;;;;;;7.40;3.90;;;8.90;99.90;9.30;97307.00;;;;5111505;28;20195;-68
2022/10/31 03:00:21;;;;;;;10.77;2.77;;;8.80;99.90;9.50;97319.00;;;;5092857;28;20240;-63
2022/10/31 03:03:18;;;;;;;7.03;3.93;;;8.70;99.90;9.70;97299.00;;;;5107922;28;20692;-65
2022/10/31 03:06:13;;;;;;;7.10;3.53;;;8.80;99.90;9.40;97307.00;;;;5111682;28;20646;-70
2022/10/31 03:09:10;;;;;;;9.87;3.77;;;8.70;99.90;9.80;97308.00;;;;5110993;28;20248;-64
2022/10/31 03:12:05;;;;;;;12.40;3.80;;;8.80;99.90;9.70;97306.00;;;;5111112;28;20576;-66
2022/10/31 03:15:04;;;;;;;7.17;3.33;;;8.80;99.90;9.70;97304.00;;;;5111265;28;20818;-63
2022/10/31 03:18:00;;;;;;;5.67;3.47;;;8.80;99.90;9.70;97311.00;;;;5110434;28;20799;-64
2022/10/31 03:20:56;;;;;;;15.10;4.43;;;8.90;99.90;10.00;97314.00;;;;5111431;28;20218;-63
2022/10/31 03:23:48;;;;;;;8.23;3.43;;;8.90;99.90;10.00;97312.00;;;;5111078;28;20210;-63
2022/10/31 03:26:39;;;;;;;8.60;3.70;;;9.00;99.90;9.50;97317.00;;;;5110470;28;20708;-64
2022/10/31 03:29:33;;;;;;;8.67;4.00;;;8.80;99.90;9.40;97316.00;;;;5097121;28;20293;-64
2022/10/31 03:32:28;;;;;;;4.67;3.40;;;8.70;99.90;9.80;97312.00;;;;5103641;28;20293;-64
2022/10/31 03:35:20;;;;;;;12.07;3.07;;;8.70;99.90;9.50;97312.00;;;;5105528;28;20207;-63
2022/10/31 03:38:12;;;;;;;5.07;2.90;;;8.70;99.90;9.40;97321.00;;;;5109518;28;20538;-63
2022/10/31 03:41:03;;;;;;;9.83;3.27;;;8.70;99.90;9.10;97316.00;;;;5110033;28;20302;-70
2022/10/31 03:43:59;;;;;;;8.87;3.87;;;8.60;99.90;9.30;97316.00;;;;5111105;28;20957;-64
2022/10/31 03:46:48;;;;;;;5.30;3.77;;;8.50;99.90;9.30;97321.00;;;;5109486;28;20203;-65
2022/10/31 03:49:37;;;;;;;6.97;3.80;;;8.50;99.90;9.40;97327.00;;;;5107112;28;20294;-64
2022/10/31 03:52:30;;;;;;;8.90;4.40;;;8.50;99.90;9.30;97325.00;;;;5109649;28;20242;-63
2022/10/31 03:55:26;;;;;;;10.93;3.97;;;8.50;99.90;9.50;97317.00;;;;5098301;28;20234;-63
2022/10/31 03:58:22;;;;;;;4.90;3.60;;;8.60;99.90;9.80;97325.00;;;;5109387;28;20202;-63
2022/10/31 04:01:16;;;;;;;9.53;4.87;;;8.70;99.90;9.90;97323.00;;;;5099851;27;20893;-65
2022/10/31 04:04:06;;;;;;;7.57;3.80;;;8.70;99.90;9.70;97319.00;;;;5110283;28;20203;-65
2022/10/31 04:06:58;;;;;;;11.50;5.53;;;8.80;99.90;10.10;97329.00;;;;5104567;28;20191;-63
2022/10/31 04:09:48;;;;;;;6.67;3.80;;;8.90;99.90;9.90;97316.00;;;;5102210;28;20226;-64
2022/10/31 04:12:40;;;;;;;6.23;3.67;;;8.80;99.90;9.10;97320.00;;;;5109842;28;20275;-63
2022/10/31 04:15:30;;;;;;;13.57;4.43;;;8.70;99.90;9.00;97326.00;;;;5110220;28;20203;-64
2022/10/31 04:18:18;;;;;;;7.87;3.67;;;8.50;99.90;9.50;97337.00;;;;5109279;28;20199;-63
2022/10/31 04:21:09;;;;;;;7.17;4.50;;;8.50;99.90;9.00;97317.00;;;;5109536;28;20724;-63
2022/10/31 04:23:58;;;;;;;9.73;4.17;;;8.30;99.90;9.20;97318.00;;;;5110382;28;20211;-67
2022/10/31 04:26:46;;;;;;;8.07;3.83;;;8.30;99.90;9.40;97327.00;;;;5104744;28;20199;-63
2022/10/31 04:29:36;;;;;;;8.43;3.87;;;8.40;99.90;9.60;97330.00;;;;5095958;28;20297;-63
2022/10/31 04:32:25;;;;;;;7.67;3.27;;;8.40;99.90;9.30;97320.00;;;;5107129;28;20214;-67
2022/10/31 04:35:14;;;;;;;11.00;4.17;;;8.40;99.90;9.30;97321.00;;;;5093150;28;20199;-63
2022/10/31 04:38:03;;;;;;;10.00;5.00;;;8.40;99.90;9.30;97331.00;;;;5089766;28;20203;-62
2022/10/31 04:40:52;;;;;;;10.57;4.27;;;7.40;99.90;9.30;97320.00;;;;5099282;28;20218;-66
2022/10/31 04:43:40;;;;;;;14.37;5.03;;;8.50;99.90;9.20;97314.00;;;;5109451;28;20210;-67
2022/10/31 04:46:31;;;;;;;10.30;5.03;;;8.50;99.90;9.40;97318.00;;;;5109053;28;20240;-67
2022/10/31 04:49:19;;;;;;;6.97;3.87;;;8.50;99.90;9.80;97316.00;;;;5108889;28;20199;-63
2022/10/31 04:52:08;;;;;;;9.37;4.90;;;8.60;99.90;9.30;97315.00;;;;5109922;28;20716;-65
2022/10/31 04:54:57;;;;;;;4.77;4.07;;;8.70;99.90;9.10;97312.00;;;;5109670;28;20207;-64
2022/10/31 04:57:48;;;;;;;9.93;3.60;;;8.60;99.90;9.20;97320.00;;;;5109310;28;20233;-68
2022/10/31 05:00:36;;;;;;;11.07;4.40;;;8.50;99.90;9.40;97337.00;;;;5109277;28;20288;-62
2022/10/31 05:03:26;;;;;;;10.20;6.20;;;8.50;99.90;9.50;97319.00;;;;5108845;28;20209;-63
2022/10/31 05:06:16;;;;;;;24.50;8.83;;;8.60;99.90;9.50;97318.00;;;;5110100;28;20251;-63
2022/10/31 05:09:05;;;;;;;29.67;14.63;;;8.60;99.90;9.30;97317.00;;;;5109817;28;20199;-64
2022/10/31 05:11:53;;;;;;;16.03;9.47;;;8.60;99.90;9.50;97315.00;;;;5105176;28;20701;-63
2022/10/31 05:14:42;;;;;;;12.63;5.50;;;8.50;99.90;9.50;97320.00;;;;5101457;28;20210;-63
2022/10/31 05:17:32;;;;;;;10.30;5.83;;;8.50;99.90;9.60;97328.00;;;;5108841;28;20206;-63
2022/10/31 05:20:24;;;;;;;16.87;5.80;;;8.60;99.90;9.30;97339.00;;;;5109737;28;20252;-64
2022/10/31 05:23:13;;;;;;;8.17;5.53;;;8.60;99.90;9.60;97322.00;;;;5110078;28;20289;-63
2022/10/31 05:26:02;;;;;;;13.60;5.33;;;8.70;99.90;9.50;97327.00;;;;5105152;28;20329;-65
2022/10/31 05:28:50;;;;;;;9.67;4.03;;;8.60;99.90;9.00;97319.00;;;;5107496;28;20554;-63
2022/10/31 05:31:39;;;;;;;13.10;5.20;;;8.50;99.90;9.00;97323.00;;;;5099161;28;20275;-63
2022/10/31 05:34:28;;;;;;;6.03;4.37;;;8.40;99.90;8.90;97325.00;;;;5104491;28;20218;-64
2022/10/31 05:37:18;;;;;;;10.80;3.70;;;8.30;99.90;9.00;97323.00;;;;5107469;28;20202;-67
2022/10/31 05:40:10;;;;;;;7.13;4.17;;;8.30;99.90;9.00;97312.00;;;;5108460;28;20207;-63
2022/10/31 05:42:59;;;;;;;11.37;6.10;;;8.30;99.90;9.40;97316.00;;;;5108785;28;20238;-63
2022/10/31 05:45:48;;;;;;;11.73;4.17;;;8.40;99.90;9.50;97331.00;;;;5108716;28;20211;-63
2022/10/31 05:48:36;;;;;;;11.70;4.37;;;8.50;99.90;9.90;97323.00;;;;5108455;28;20236;-63
2022/10/31 05:51:25;;;;;;;12.53;4.00;;;8.60;99.90;9.00;97323.00;;;;5108535;28;20219;-63
2022/10/31 05:54:15;;;;;;;5.03;3.27;;;8.50;99.90;8.50;97318.00;;;;5108453;28;20222;-69
2022/10/31 05:57:04;;;;;;;5.13;3.67;;;8.30;99.90;8.60;97317.00;;;;5107395;28;20700;-63
2022/10/31 05:59:53;;;;;;;9.77;4.83;;;8.10;99.90;8.90;97323.00;;;;5101774;28;20276;-63
2022/10/31 06:02:42;;;;;;;13.57;4.20;;;8.10;99.90;9.10;97326.00;;;;5102117;28;20723;-65
2022/10/31 06:05:32;;;;;;;13.37;5.40;;;8.10;99.90;9.50;97325.00;;;;5099887;28;20273;-63
2022/10/31 06:08:20;;;;;;;9.73;5.03;;;8.20;99.90;9.50;97327.00;;;;5106348;28;20202;-62
2022/10/31 06:11:10;;;;;;;10.07;5.03;;;8.30;99.90;9.30;97328.00;;;;5108186;28;20215;-63
2022/10/31 06:13:59;;;;;;;7.00;4.77;;;8.40;99.90;9.00;97333.00;;;;5111220;28;20310;-64
2022/10/31 06:16:48;;;;;;;8.40;4.57;;;8.30;99.90;9.50;97334.00;;;;5112089;28;20599;-65
2022/10/31 06:19:36;;;;;;;12.17;5.07;;;8.40;99.90;9.70;97341.00;;;;5108182;28;20214;-63
2022/10/31 06:22:25;;;;;;;13.40;8.20;;;8.60;99.90;9.80;97331.00;;;;5108739;28;20215;-63
2022/10/31 06:25:14;;;;;;;14.00;8.13;;;8.70;99.90;9.60;97334.00;;;;5109613;28;20256;-63
2022/10/31 06:28:04;;;;;;;10.60;6.50;;;8.70;99.90;9.00;97347.00;;;;5111043;28;20709;-63
2022/10/31 06:30:53;;;;;;;12.90;6.13;;;8.50;99.90;9.00;97330.00;;;;5108711;28;20218;-63
2022/10/31 06:33:43;;;;;;;10.10;5.67;;;8.40;99.90;9.30;97321.00;;;;5107113;28;20257;-64
2022/10/31 06:36:31;;;;;;;6.53;4.70;;;8.40;99.90;9.40;97342.00;;;;5104682;28;20314;-65
2022/10/31 06:39:20;;;;;;;9.73;5.27;;;8.50;99.90;9.60;97334.00;;;;5109187;28;20191;-64
2022/10/31 06:42:09;;;;;;;9.00;5.70;;;8.60;99.90;10.00;97337.00;;;;5110806;28;20279;-69
2022/10/31 06:44:59;;;;;;;8.93;5.70;;;8.70;99.90;10.00;97343.00;;;;5107132;28;20748;-63
2022/10/31 06:47:52;;;;;;;10.83;4.90;;;8.80;99.90;10.30;97340.00;;;;5098433;28;20191;-64
2022/10/31 06:50:59;;;;;;;8.63;4.60;;;9.00;99.90;10.20;97352.00;;;;5143213;27;20232;-64
2022/10/31 06:53:48;;;;;;;6.83;4.70;;;9.10;99.90;10.20;97350.00;;;;5152845;27;20232;-65
2022/10/31 06:56:37;;;;;;;10.80;5.47;;;9.10;99.90;10.20;97348.00;;;;5149357;27;20242;-65
2022/10/31 06:59:26;;;;;;;13.27;5.80;;;9.10;99.90;10.20;97339.00;;;;5148439;27;20249;-63
2022/10/31 07:02:16;;;;;;;12.87;5.63;;;9.20;99.90;10.50;97347.00;;;;5148331;27;20221;-65
2022/10/31 07:05:06;;;;;;;9.43;3.97;;;9.20;99.90;10.40;97359.00;;;;5147566;27;20664;-66
2022/10/31 07:07:55;;;;;;;12.73;5.90;;;9.30;99.90;10.20;97354.00;;;;5151050;27;20607;-62
2022/10/31 07:10:52;;;;;;;11.43;4.73;;;9.30;99.90;10.90;97363.00;;;;5151748;27;20228;-63
2022/10/31 07:13:41;;;;;;;10.53;6.23;;;9.50;99.90;11.10;97355.00;;;;5151299;27;20201;-63
2022/10/31 07:16:29;;;;;;;9.43;5.77;;;9.70;99.90;11.00;97362.00;;;;5152769;27;20204;-64
2022/10/31 07:19:19;;;;;;;12.17;5.80;;;9.80;99.90;11.10;97356.00;;;;5148612;27;20650;-63
2022/10/31 07:22:08;;;;;;;10.93;6.20;;;9.90;99.90;11.50;97359.00;;;;5150219;27;20213;-63
2022/10/31 07:24:57;;;;;;;15.83;5.93;;;10.00;99.90;11.80;97362.00;;;;5148134;27;20204;-64
2022/10/31 07:27:45;;;;;;;15.17;5.90;;;10.20;99.90;11.90;97371.00;;;;5144943;27;20197;-63
2022/10/31 07:30:34;;;;;;;12.47;5.10;;;10.40;99.90;12.00;97362.00;;;;5144502;27;20210;-65
2022/10/31 07:33:25;;;;;;;5.23;4.70;;;10.60;99.90;12.30;97369.00;;;;5142036;27;20197;-64
2022/10/31 07:36:15;;;;;;;13.10;6.33;;;10.70;99.90;12.60;97368.00;;;;5150502;27;20215;-65
2022/10/31 07:39:04;;;;;;;10.50;5.80;;;10.90;99.90;12.60;97365.00;;;;5147806;27;20278;-64
2022/10/31 07:41:53;;;;;;;12.33;7.17;;;11.00;99.90;12.70;97366.00;;;;5149347;27;20305;-66
2022/10/31 07:44:41;;;;;;;16.80;6.83;;;11.20;99.90;13.00;97377.00;;;;5150716;27;20209;-64
2022/10/31 07:47:30;;;;;;;19.07;10.27;;;11.30;99.90;13.00;97371.00;;;;5152305;27;20197;-64
2022/10/31 07:50:21;;;;;;;14.07;9.07;;;11.50;99.90;13.50;97375.00;;;;5146256;27;20256;-63
2022/10/31 07:53:13;;;;;;;11.77;5.83;;;11.70;99.90;14.10;97369.00;;;;5146437;27;20201;-63
2022/10/31 07:56:01;;;;;;;13.33;6.23;;;12.00;99.90;14.40;97372.00;;;;5148698;27;20312;-64
2022/10/31 07:58:50;;;;;;;9.20;5.03;;;12.30;99.90;14.60;97372.00;;;;5144677;27;20193;-64
2022/10/31 08:01:39;;;;;;;12.40;4.83;;;12.50;99.90;14.70;97376.00;;;;5150440;27;20217;-64
2022/10/31 08:04:27;;;;;;;10.60;6.00;;;12.80;99.90;14.80;97379.00;;;;5148042;27;20206;-63
2022/10/31 08:07:17;;;;;;;15.77;5.57;;;13.00;99.90;15.00;97374.00;;;;5146574;27;20201;-64
2022/10/31 08:10:07;;;;;;;15.33;5.43;;;13.20;99.90;15.00;97365.00;;;;5147166;27;20225;-66
2022/10/31 08:12:58;;;;;;;10.37;6.47;;;13.40;99.90;15.40;97377.00;;;;5147412;27;20209;-64
2022/10/31 08:15:50;;;;;;;8.73;4.33;;;13.50;99.90;15.10;97370.00;;;;5145338;27;20222;-65
2022/10/31 08:18:38;;;;;;;8.57;4.20;;;13.70;99.90;15.60;97381.00;;;;5142344;27;20739;-64
2022/10/31 08:21:27;;;;;;;12.33;4.83;;;13.80;99.90;15.60;97374.00;;;;5146558;27;20642;-65
2022/10/31 08:24:16;;;;;;;6.80;5.40;;;14.00;99.90;15.70;97365.00;;;;5148035;27;20201;-66
2022/10/31 08:27:06;;;;;;;12.67;5.43;;;14.10;99.90;15.70;97369.00;;;;5145605;27;20206;-64
2022/10/31 08:29:54;;;;;;;14.40;5.20;;;14.20;99.90;15.90;97371.00;;;;5140294;27;20201;-64
2022/10/31 08:32:43;;;;;;;8.53;4.60;;;14.30;99.90;16.10;97373.00;;;;5148214;27;20200;-65
2022/10/31 08:35:33;;;;;;;11.73;5.90;;;14.40;99.90;16.10;97367.00;;;;5147684;27;20213;-64
2022/10/31 08:38:22;;;;;;;9.47;7.07;;;14.50;99.90;16.30;97368.00;;;;5143693;27;20193;-64
2022/10/31 08:41:10;;;;;;;10.17;4.17;;;14.60;99.90;16.60;97371.00;;;;5151353;27;20288;-64
2022/10/31 08:44:00;;;;;;;5.57;3.93;;;14.70;99.90;16.40;97364.00;;;;5149136;27;20669;-64
2022/10/31 08:46:49;;;;;;;11.70;5.00;;;14.90;99.90;16.90;97363.00;;;;5147993;27;20617;-65
2022/10/31 08:49:38;;;;;;;11.80;4.50;;;15.00;99.90;17.00;97362.00;;;;5146010;27;20245;-65
2022/10/31 08:52:26;;;;;;;6.43;4.03;;;15.10;99.90;17.00;97360.00;;;;5148806;27;20249;-65
2022/10/31 08:55:26;;;;;;;9.27;4.40;;;15.30;99.90;17.00;97359.00;;;;5145987;27;20217;-65
2022/10/31 08:58:16;;;;;;;8.57;3.67;;;15.40;99.90;17.00;97355.00;;;;5145181;27;20732;-65
2022/10/31 09:01:07;;;;;;;7.53;4.73;;;15.50;99.90;17.00;97363.00;;;;5147855;27;20609;-66
2022/10/31 09:03:55;;;;;;;9.50;5.13;;;15.60;99.90;17.50;97366.00;;;;5147773;27;20190;-64
2022/10/31 09:06:44;;;;;;;12.43;4.47;;;15.70;99.90;17.60;97362.00;;;;5147098;27;20602;-64
2022/10/31 09:09:43;;;;;;;12.93;4.33;;;15.90;99.90;17.60;97361.00;;;;5146618;27;20249;-64
2022/10/31 09:12:31;;;;;;;11.17;6.57;;;16.00;99.90;18.00;97357.00;;;;5146507;27;20287;-63
2022/10/31 09:15:20;;;;;;;10.10;5.27;;;16.10;99.90;18.20;97361.00;;;;5140837;27;20718;-65
2022/10/31 09:18:11;;;;;;;8.37;3.80;;;16.30;99.90;18.30;97358.00;;;;5143962;27;20311;-65
2022/10/31 09:21:01;;;;;;;9.43;4.70;;;16.50;99.90;18.30;97354.00;;;;5149886;27;20353;-64
2022/10/31 09:23:50;;;;;;;8.43;4.53;;;16.70;99.90;18.40;97342.00;;;;5148163;27;20225;-64
2022/10/31 09:26:38;;;;;;;9.77;4.53;;;16.70;99.90;18.50;97349.00;;;;5150380;27;20193;-64
2022/10/31 09:29:27;;;;;;;20.07;5.20;;;16.90;99.90;18.90;97351.00;;;;5144439;27;20242;-64
2022/10/31 09:32:16;;;;;;;11.80;4.63;;;17.00;99.90;18.90;97351.00;;;;5140359;27;20293;-65
2022/10/31 09:35:07;;;;;;;10.33;4.67;;;17.20;99.90;18.90;97346.00;;;;5143851;27;20228;-64
2022/10/31 09:37:56;;;;;;;12.77;4.80;;;17.30;99.90;19.00;97342.00;;;;5145394;27;20204;-64
2022/10/31 09:40:48;;;;;;;9.83;4.20;;;17.40;99.90;19.80;97349.00;;;;5133805;27;20210;-65
2022/10/31 09:43:52;;;;;;;11.40;4.37;;;17.60;99.90;19.50;97343.00;;;;5146060;27;20653;-65
2022/10/31 09:46:53;;;;;;;5.60;3.17;;;17.70;99.90;19.20;97341.00;;;;5147179;27;20246;-64
2022/10/31 09:50:01;;;;;;;11.33;4.53;;;17.80;99.90;19.60;97343.00;;;;5145615;27;20205;-65
2022/10/31 09:52:59;;;;;;;7.70;4.27;;;18.00;99.90;19.80;97341.00;;;;5146898;27;20220;-65
2022/10/31 09:55:50;;;;;;;12.33;4.33;;;18.10;99.90;20.40;97348.00;;;;5145514;27;20220;-66
2022/10/31 09:58:46;;;;;;;6.20;3.80;;;18.30;99.90;20.60;97345.00;;;;5145132;27;20258;-64
2022/10/31 10:01:44;;;;;;;8.50;4.83;;;18.60;99.90;21.00;97351.00;;;;5146325;27;20211;-65
2022/10/31 10:04:40;;;;;;;7.57;4.03;;;18.80;99.90;21.30;97330.00;;;;5146498;27;20190;-65
2022/10/31 10:07:41;;;;;;;14.50;4.87;;;19.10;99.90;21.80;97344.00;;;;5149127;27;20214;-65
2022/10/31 10:10:46;;;;;;;6.53;3.90;;;19.30;99.90;21.60;97341.00;;;;5147989;27;20686;-64
2022/10/31 10:14:00;;;;;;;9.10;4.03;;;19.60;99.90;22.40;97342.00;;;;5148598;27;20224;-66
2022/10/31 10:17:13;;;;;;;13.90;4.93;;;20.00;99.90;23.00;97334.00;;;;5145002;27;20214;-63
2022/10/31 10:20:25;;;;;;;8.93;4.97;;;20.80;99.90;23.60;97336.00;;;;5145367;27;20197;-64
2022/10/31 10:23:37;;;;;;;6.87;4.53;;;21.70;99.90;23.80;97333.00;;;;5146284;27;20272;-65
2022/10/31 10:26:36;;;;;;;6.90;3.57;;;22.20;99.90;24.50;97329.00;;;;5147091;27;20320;-65
2022/10/31 10:29:35;;;;;;;11.47;4.57;;;22.70;99.80;24.50;97325.00;;;;5143848;27;20197;-64
2022/10/31 10:32:30;;;;;;;9.87;5.07;;;23.10;96.40;24.90;97319.00;;;;5137365;27;20720;-65
2022/10/31 10:35:28;;;;;;;6.87;3.43;;;23.40;95.50;24.90;97321.00;;;;5144508;27;20225;-65
2022/10/31 10:38:27;;;;;;;10.37;4.30;;;23.50;93.90;24.80;97320.00;;;;5146846;27;20213;-65
2022/10/31 10:41:20;;;;;;;8.07;4.23;;;23.70;92.90;24.80;97322.00;;;;5147066;27;20273;-65
2022/10/31 10:44:12;;;;;;;8.27;3.77;;;23.80;91.90;25.80;97317.00;;;;5129043;27;20670;-65
2022/10/31 10:50:16;;;;;;;8.43;3.70;;;24.10;91.00;26.20;97312.00;;;;5146086;27;20231;-64
2022/10/31 10:53:21;;;;;;;6.70;3.40;;;24.30;90.90;26.60;97307.00;;;;5133454;27;20266;-64
2022/10/31 10:56:17;;;;;;;10.30;3.07;;;24.60;91.00;26.30;97310.00;;;;5145588;27;20237;-66
2022/10/31 10:59:12;;;;;;;20.13;4.87;;;24.90;88.30;25.90;97299.00;;;;5147103;27;20924;-65
2022/10/31 11:02:01;;;;;;;12.17;3.97;;;24.60;87.20;26.90;97305.00;;;;5140946;27;20222;-66
2022/10/31 11:04:53;;;;;;;7.90;3.47;;;24.80;88.40;26.90;97310.00;;;;5144751;27;20675;-65
2022/10/31 11:07:41;;;;;;;11.67;4.57;;;25.10;85.10;27.40;97293.00;;;;5139336;27;20200;-66
2022/10/31 11:10:30;;;;;;;8.90;4.90;;;25.40;84.80;27.90;97302.00;;;;5152658;27;20236;-66
2022/10/31 11:13:24;;;;;;;10.10;3.10;;;25.70;84.90;28.00;97294.00;;;;5132723;27;20286;-66
2022/10/31 11:16:29;;;;;;;10.47;3.40;;;26.10;82.80;28.20;97290.00;;;;5137367;27;20220;-66
2022/10/31 11:19:21;;;;;;;11.60;5.77;;;26.30;81.10;28.90;97293.00;;;;5139946;27;20206;-65
2022/10/31 11:22:17;;;;;;;21.05;10.93;;;26.60;80.50;29.50;97298.00;;;;5133016;27;20255;-66
2022/10/31 11:25:23;;;;;;;10.32;3.70;;;27.00;80.90;28.90;97296.00;;;;5132541;27;20199;-66
2022/10/31 11:28:12;;;;;;;13.30;5.05;;;27.20;74.00;28.70;97287.00;;;;5135286;27;20252;-66
2022/10/31 11:31:07;;;;;;;8.57;3.35;;;27.20;73.40;28.60;97286.00;;;;5144515;27;20218;-66
2022/10/31 11:34:01;;;;;;;12.75;4.57;;;27.10;71.40;29.00;97282.00;;;;5141970;27;20206;-68
2022/10/31 11:36:50;;;;;;;14.10;5.43;;;27.00;73.30;29.60;97286.00;;;;5146350;27;20315;-66
2022/10/31 11:39:44;;;;;;;10.90;4.15;;;27.20;73.40;29.90;97275.00;;;;5150385;27;20197;-67
2022/10/31 11:42:39;;;;;;;6.43;3.17;;;27.50;71.50;29.20;97267.00;;;;5149168;27;20756;-67
2022/10/31 11:45:33;;;;;;;11.52;3.78;;;27.50;66.60;29.50;97268.00;;;;5149711;27;20194;-66
2022/10/31 11:48:25;;;;;;;13.15;4.07;;;27.60;67.10;30.00;97269.00;;;;5150255;27;20204;-66
2022/10/31 11:51:22;;;;;;;5.75;3.05;;;27.80;67.70;30.00;97260.00;;;;5147098;27;20304;-66
2022/10/31 11:54:23;;;;;;;12.90;5.25;;;27.90;65.20;30.40;97258.00;;;;5136661;27;20235;-67
2022/10/31 11:57:25;;;;;;;8.27;3.53;;;28.10;64.60;30.00;97260.00;;;;5142986;27;20278;-67
2022/10/31 12:00:24;;;;;;;6.38;3.60;;;28.20;62.10;30.80;97255.00;;;;5148661;27;20208;-67
2022/10/31 12:03:28;;;;;;;9.75;5.20;;;28.40;62.70;31.00;97245.00;;;;5151028;27;20200;-67
2022/10/31 12:06:23;;;;;;;11.55;5.68;;;28.60;62.70;31.00;97245.00;;;;5149768;27;20245;-66
2022/10/31 12:09:23;;;;;;;8.43;3.65;;;28.60;62.50;31.40;97254.00;;;;5150323;27;20293;-67
2022/10/31 12:12:46;;;;;;;8.15;3.40;;;28.90;62.30;31.40;97245.00;;;;5149203;27;20643;-66
2022/10/31 12:15:36;;;;;;;5.95;4.03;;;29.10;61.00;32.10;97243.00;;;;5140059;27;20243;-66
2022/10/31 12:18:57;;;;;;;6.47;3.28;;;29.40;61.70;32.20;97233.00;;;;5148261;27;20284;-67
2022/10/31 12:22:07;;;;;;;9.38;3.97;;;29.80;60.60;32.50;97236.00;;;;5144483;27;20248;-67
2022/10/31 12:25:17;;;;;;;9.07;3.60;;;30.10;59.40;32.00;97239.00;;;;5145560;27;20185;-67
2022/10/31 12:28:38;;;;;;;8.68;3.55;;;30.30;58.90;32.50;97236.00;;;;5146904;27;20255;-68
2022/10/31 12:31:49;;;;;;;12.73;3.70;;;30.30;60.20;32.60;97228.00;;;;5148795;27;20221;-66
2022/10/31 12:35:15;;;;;;;7.95;3.75;;;30.50;59.80;33.30;97229.00;;;;5131020;27;20229;-67
2022/10/31 12:38:43;;;;;;;10.77;4.70;;;30.70;59.60;33.80;97230.00;;;;5142031;27;20270;-66
2022/10/31 12:41:48;;;;;;;9.70;4.18;;;31.20;59.80;34.20;97224.00;;;;5149922;27;20212;-67
2022/10/31 12:45:10;;;;;;;8.00;3.50;;;31.60;58.90;33.90;97226.00;;;;5145868;27;20197;-66
2022/10/31 12:48:34;;;;;;;14.65;3.92;;;31.80;58.30;34.50;97226.00;;;;5144064;27;20219;-67
2022/10/31 12:51:33;;;;;;;8.95;4.10;;;32.00;58.90;34.40;97224.00;;;;5146262;27;20228;-67
2022/10/31 12:54:43;;;;;;;8.07;3.78;;;32.30;57.70;34.30;97227.00;;;;5148818;27;20683;-67
2022/10/31 12:57:40;;;;;;;8.73;3.47;;;32.30;56.90;33.90;97225.00;;;;5146215;27;20334;-67